Time;durP1;ratioP1;P1;durP2;ratioP2;P2;SDS_P1;SDS_P2;PMS_P1;PMS_P2;Temp;Humidity;BMP_temperature;BMP_pressure;BME280_temperature;BME280_humidity;BME280_pressure;Samples;Min_cycle;Max_cycle;Signal;HPM_P1;HPM_P2
2021/12/16 00:02:05;;;;;;;9.30;5.88;;;9.30;99.90;;;;;;5114578;27;20107;-78
2021/12/16 00:10:30;;;;;;;9.77;6.60;;;9.30;99.90;;;;;;5046556;28;20153;-76
2021/12/16 00:32:28;;;;;;;14.93;7.03;;;9.30;99.90;;;;;;5136678;27;20042;-76
2021/12/16 00:34:54;;;;;;;13.05;6.38;;;9.40;99.90;;;;;;5119506;27;20046;-77
2021/12/16 00:37:20;;;;;;;10.10;5.95;;;9.30;99.90;;;;;;5137925;27;20043;-77
2021/12/16 00:39:46;;;;;;;13.10;7.13;;;9.30;99.90;;;;;;5118017;27;20067;-77
2021/12/16 00:42:28;;;;;;;12.63;6.35;;;9.30;99.90;;;;;;5137940;27;20083;-77
2021/12/16 00:47:34;;;;;;;10.23;6.82;;;9.30;99.90;;;;;;5137507;27;20548;-77
2021/12/16 00:55:57;;;;;;;11.20;6.25;;;9.30;99.90;;;;;;5118346;27;20607;-76
2021/12/16 00:58:29;;;;;;;7.88;6.10;;;9.30;99.90;;;;;;5119257;27;20049;-77
2021/12/16 01:04:12;;;;;;;11.20;6.50;;;9.80;99.90;;;;;;5117776;27;20812;-77
2021/12/16 01:34:33;;;;;;;15.20;6.82;;;9.40;99.90;;;;;;5121431;27;20058;-78
2021/12/16 01:55:08;;;;;;;12.82;8.02;;;9.40;99.90;;;;;;5139464;27;20070;-77
2021/12/16 01:57:41;;;;;;;16.75;7.75;;;9.40;99.90;;;;;;5119459;27;20866;-76
2021/12/16 02:00:30;;;;;;;16.20;7.90;;;9.40;99.90;;;;;;5126622;27;20043;-77
2021/12/16 02:03:05;;;;;;;8.93;5.93;;;9.40;99.90;;;;;;5119976;27;20134;-77
2021/12/16 02:08:31;;;;;;;11.77;6.55;;;9.40;99.90;;;;;;5123184;27;21011;-78
2021/12/16 02:11:16;;;;;;;8.05;6.47;;;9.40;99.90;;;;;;5119893;27;20058;-77
2021/12/16 02:27:34;;;;;;;11.50;6.82;;;9.50;99.90;;;;;;5137977;27;20042;-77
2021/12/16 02:35:35;;;;;;;14.90;7.68;;;9.40;99.90;;;;;;5123714;27;20062;-77
2021/12/16 02:38:05;;;;;;;12.93;7.07;;;9.50;99.90;;;;;;5123966;27;20057;-77
2021/12/16 02:40:33;;;;;;;12.30;7.68;;;9.50;99.90;;;;;;5142503;27;20049;-77
2021/12/16 02:43:08;;;;;;;14.57;8.05;;;9.50;99.90;;;;;;5124158;27;20042;-77
2021/12/16 02:48:34;;;;;;;13.02;8.05;;;9.50;99.90;;;;;;5142334;27;20064;-77
2021/12/16 02:51:02;;;;;;;9.90;7.40;;;9.50;99.90;;;;;;5121951;27;20047;-77
2021/12/16 02:53:28;;;;;;;10.30;6.93;;;9.50;99.90;;;;;;5117242;27;20074;-77
2021/12/16 02:55:55;;;;;;;12.43;7.90;;;9.40;99.90;;;;;;5123787;27;20043;-78
2021/12/16 02:58:21;;;;;;;12.45;7.25;;;9.40;99.90;;;;;;5123539;27;20043;-77
2021/12/16 03:00:56;;;;;;;12.75;7.53;;;9.50;99.90;;;;;;5142647;27;20121;-77
2021/12/16 03:03:22;;;;;;;15.80;8.43;;;9.40;99.90;;;;;;5123965;27;20305;-77
2021/12/16 03:05:47;;;;;;;10.75;7.10;;;9.40;99.90;;;;;;5142245;27;20046;-77
2021/12/16 03:08:13;;;;;;;14.23;7.38;;;9.40;99.90;;;;;;5141471;27;20375;-77
2021/12/16 03:11:03;;;;;;;12.77;8.00;;;9.30;99.90;;;;;;5123523;27;20477;-77
2021/12/16 03:16:10;;;;;;;14.55;6.57;;;9.30;99.90;;;;;;5141041;27;20141;-77
2021/12/16 03:21:33;;;;;;;12.48;7.65;;;9.30;99.90;;;;;;5144561;27;20046;-77
2021/12/16 03:26:40;;;;;;;9.30;6.80;;;9.30;99.90;;;;;;5126041;27;20842;-77
2021/12/16 03:34:58;;;;;;;10.93;6.95;;;9.20;99.90;;;;;;5148669;27;20109;-76
2021/12/16 03:37:25;;;;;;;10.10;7.47;;;9.20;99.90;;;;;;5141076;27;20047;-77
2021/12/16 03:39:50;;;;;;;13.38;7.30;;;9.20;99.90;;;;;;5141201;27;20050;-77
2021/12/16 03:42:21;;;;;;;11.82;8.02;;;9.10;99.90;;;;;;5123049;27;20868;-77
2021/12/16 03:44:56;;;;;;;14.38;9.05;;;9.10;99.90;;;;;;5122436;27;20837;-77
2021/12/16 03:47:45;;;;;;;12.80;8.48;;;9.10;99.90;;;;;;5118069;27;20054;-76
2021/12/16 03:50:20;;;;;;;11.65;7.15;;;9.00;99.90;;;;;;5121958;27;20062;-77
2021/12/16 03:52:47;;;;;;;11.80;7.63;;;9.00;99.90;;;;;;5124433;27;20046;-77
2021/12/16 03:55:13;;;;;;;11.65;8.63;;;8.90;99.90;;;;;;5116131;27;20123;-77
2021/12/16 03:57:39;;;;;;;13.52;7.28;;;8.90;99.90;;;;;;5122112;27;20038;-77
2021/12/16 04:00:14;;;;;;;19.23;9.68;;;8.90;99.90;;;;;;5129349;27;20476;-77
2021/12/16 04:02:39;;;;;;;13.07;8.10;;;8.90;99.90;;;;;;5144636;27;20065;-77
2021/12/16 04:05:08;;;;;;;13.02;7.68;;;8.90;99.90;;;;;;5124389;27;20371;-77
2021/12/16 04:07:35;;;;;;;10.32;6.93;;;8.90;99.90;;;;;;5125468;27;20043;-77
2021/12/16 04:10:05;;;;;;;11.52;8.85;;;8.90;99.90;;;;;;5122894;27;20062;-77
2021/12/16 04:12:31;;;;;;;15.35;8.55;;;8.80;99.90;;;;;;5140816;27;20117;-77
2021/12/16 04:14:59;;;;;;;17.50;8.13;;;8.80;99.90;;;;;;5122765;27;20034;-77
2021/12/16 04:17:28;;;;;;;12.48;8.05;;;8.80;99.90;;;;;;5129241;27;20092;-77
2021/12/16 04:19:55;;;;;;;13.45;8.40;;;8.70;99.90;;;;;;5122398;27;20788;-77
2021/12/16 04:22:33;;;;;;;12.77;7.20;;;8.60;99.90;;;;;;5141320;27;20042;-77
2021/12/16 04:25:05;;;;;;;10.98;8.20;;;8.60;99.90;;;;;;5120120;27;20052;-77
2021/12/16 04:27:33;;;;;;;12.13;7.00;;;8.50;99.90;;;;;;5115773;27;20055;-77
2021/12/16 04:29:58;;;;;;;13.65;7.40;;;8.50;99.90;;;;;;5122056;27;20516;-77
2021/12/16 04:32:24;;;;;;;13.60;8.85;;;8.50;99.90;;;;;;5141458;27;20055;-77
2021/12/16 04:34:50;;;;;;;13.02;7.63;;;8.40;99.90;;;;;;5122604;27;20133;-77
2021/12/16 04:37:16;;;;;;;12.27;8.88;;;8.40;99.90;;;;;;5122308;27;20053;-77
2021/12/16 04:39:46;;;;;;;14.23;8.07;;;8.40;99.90;;;;;;5140650;27;20051;-77
2021/12/16 04:42:13;;;;;;;14.80;8.77;;;8.30;99.90;;;;;;5133925;27;20062;-77
2021/12/16 04:44:40;;;;;;;12.35;7.43;;;8.30;99.90;;;;;;5121889;27;20042;-78
2021/12/16 04:47:07;;;;;;;15.60;9.00;;;8.40;99.90;;;;;;5140034;27;20043;-77
2021/12/16 04:49:33;;;;;;;12.05;7.82;;;8.40;99.90;;;;;;5140906;27;20046;-77
2021/12/16 04:52:03;;;;;;;10.77;7.70;;;8.40;99.90;;;;;;5121915;27;20137;-77
2021/12/16 04:54:29;;;;;;;11.98;7.88;;;8.40;99.90;;;;;;5121317;27;20054;-77
2021/12/16 04:56:56;;;;;;;15.75;10.20;;;8.40;99.90;;;;;;5140992;27;20044;-77
2021/12/16 04:59:23;;;;;;;11.40;8.73;;;8.40;99.90;;;;;;5140524;27;20876;-77
2021/12/16 05:01:54;;;;;;;14.23;8.05;;;8.40;99.90;;;;;;5121134;27;20050;-77
2021/12/16 05:04:20;;;;;;;12.73;8.63;;;8.40;99.90;;;;;;5140655;27;20045;-77
2021/12/16 05:06:46;;;;;;;12.38;8.68;;;8.40;99.90;;;;;;5124641;27;20046;-77
2021/12/16 05:09:26;;;;;;;13.50;8.73;;;8.40;99.90;;;;;;5121189;27;20085;-77
2021/12/16 05:11:52;;;;;;;12.35;7.93;;;8.40;99.90;;;;;;5121640;27;20223;-77
2021/12/16 05:14:20;;;;;;;11.35;7.78;;;8.30;99.90;;;;;;5121618;27;20087;-77
2021/12/16 05:16:45;;;;;;;16.10;8.55;;;8.30;99.90;;;;;;5140108;27;20061;-77
2021/12/16 05:19:11;;;;;;;17.48;8.27;;;8.30;99.90;;;;;;5121762;27;20046;-77
2021/12/16 05:21:49;;;;;;;11.45;8.90;;;8.30;99.90;;;;;;5140023;27;20118;-77
2021/12/16 05:24:25;;;;;;;19.27;10.48;;;8.30;99.90;;;;;;5122006;27;20501;-77
2021/12/16 05:26:58;;;;;;;18.58;9.57;;;8.30;99.90;;;;;;5144129;27;20090;-77
2021/12/16 05:29:24;;;;;;;12.70;9.37;;;8.30;99.90;;;;;;5121178;27;20046;-77
2021/12/16 05:31:51;;;;;;;11.65;8.88;;;8.40;99.90;;;;;;5121626;27;20043;-76
2021/12/16 05:34:16;;;;;;;14.07;9.43;;;8.40;99.90;;;;;;5140300;27;20074;-77
2021/12/16 05:36:42;;;;;;;13.75;9.23;;;8.40;99.90;;;;;;5121242;27;20157;-77
2021/12/16 05:39:10;;;;;;;14.00;9.70;;;8.50;99.90;;;;;;5121510;27;20542;-76
2021/12/16 05:41:35;;;;;;;17.13;9.13;;;8.40;99.90;;;;;;5122494;27;20466;-77
2021/12/16 05:44:01;;;;;;;16.95;10.48;;;8.40;99.90;;;;;;5139888;27;20516;-77
2021/12/16 05:46:28;;;;;;;15.07;8.95;;;8.40;99.90;;;;;;5121632;27;20130;-77
2021/12/16 05:48:56;;;;;;;12.77;8.50;;;8.50;99.90;;;;;;5121670;27;20054;-77
2021/12/16 05:51:25;;;;;;;14.27;8.77;;;8.50;99.90;;;;;;5139351;27;20102;-77
2021/12/16 05:53:52;;;;;;;14.68;10.43;;;8.50;99.90;;;;;;5121218;27;20046;-77
2021/12/16 05:56:18;;;;;;;15.20;9.90;;;8.50;99.90;;;;;;5121932;27;20042;-77
2021/12/16 05:58:44;;;;;;;13.77;8.98;;;8.50;99.90;;;;;;5120952;27;20528;-77
2021/12/16 06:01:16;;;;;;;13.18;8.60;;;8.50;99.90;;;;;;5121537;27;20470;-77
2021/12/16 06:03:44;;;;;;;14.73;9.07;;;8.60;99.90;;;;;;5140506;27;20866;-77
2021/12/16 06:06:10;;;;;;;13.50;9.60;;;8.60;99.90;;;;;;5125601;27;20561;-77
2021/12/16 06:08:36;;;;;;;14.00;9.38;;;8.60;99.90;;;;;;5128433;27;20061;-76
2021/12/16 06:11:17;;;;;;;17.38;9.55;;;8.60;99.90;;;;;;5124876;27;20077;-76
2021/12/16 06:14:07;;;;;;;14.13;9.48;;;8.60;99.90;;;;;;5125764;27;20134;-77
2021/12/16 06:27:35;;;;;;;12.85;8.80;;;8.50;99.90;;;;;;5116407;27;20834;-77
2021/12/16 06:30:02;;;;;;;12.93;9.18;;;8.40;99.90;;;;;;5121761;27;20568;-76
2021/12/16 06:32:27;;;;;;;13.68;8.80;;;8.40;99.90;;;;;;5120538;27;20156;-76
2021/12/16 06:34:54;;;;;;;16.98;8.88;;;8.30;99.90;;;;;;5122015;27;20130;-76
2021/12/16 06:37:21;;;;;;;20.50;9.00;;;8.30;99.90;;;;;;5140713;27;20123;-76
2021/12/16 06:39:47;;;;;;;11.35;6.90;;;8.30;99.90;;;;;;5119804;27;20042;-77
2021/12/16 06:42:13;;;;;;;15.45;9.20;;;8.20;99.90;;;;;;5139850;27;20057;-77
2021/12/16 06:44:51;;;;;;;10.50;7.32;;;8.20;99.90;;;;;;5140370;27;20735;-77
2021/12/16 06:47:23;;;;;;;14.45;8.05;;;8.20;99.90;;;;;;5121034;27;20050;-77
2021/12/16 06:49:51;;;;;;;13.23;8.52;;;8.20;99.90;;;;;;5122159;27;20061;-77
2021/12/16 06:52:20;;;;;;;13.88;8.60;;;8.20;99.90;;;;;;5121783;27;20042;-76
2021/12/16 07:00:21;;;;;;;18.00;9.18;;;7.70;99.90;;;;;;5146506;27;20141;-76
2021/12/16 07:05:13;;;;;;;16.70;8.48;;;8.00;99.90;;;;;;5121521;27;20061;-76
2021/12/16 07:07:40;;;;;;;12.75;8.07;;;8.00;99.90;;;;;;5124149;27;20046;-77
2021/12/16 07:10:08;;;;;;;13.82;9.05;;;8.00;99.90;;;;;;5139617;27;20059;-77
2021/12/16 07:12:36;;;;;;;20.08;10.88;;;8.00;99.90;;;;;;5120918;27;20051;-77
2021/12/16 07:15:09;;;;;;;14.35;9.25;;;7.90;99.90;;;;;;5118042;27;20055;-77
2021/12/16 07:17:36;;;;;;;;;;;7.90;99.90;;;;;;5121234;27;20039;-77
2021/12/16 07:20:03;;;;;;;15.00;8.77;;;7.80;99.90;;;;;;5120869;27;19929;-77
2021/12/16 07:22:29;;;;;;;16.35;9.48;;;7.80;99.90;;;;;;5139172;27;20038;-77
2021/12/16 07:24:55;;;;;;;13.35;8.73;;;7.80;99.90;;;;;;5143220;27;20610;-76
2021/12/16 07:27:20;;;;;;;19.30;10.57;;;7.80;99.90;;;;;;5121239;27;20594;-77
2021/12/16 07:29:46;;;;;;;15.98;10.05;;;7.80;99.90;;;;;;5120631;27;20051;-76
2021/12/16 07:32:11;;;;;;;14.32;9.23;;;7.80;99.90;;;;;;5120593;27;20043;-77
2021/12/16 07:34:37;;;;;;;15.82;8.93;;;7.80;99.90;;;;;;5139232;27;20415;-77
2021/12/16 07:37:06;;;;;;;17.27;10.18;;;7.80;99.90;;;;;;5118578;27;20070;-77
2021/12/16 07:39:38;;;;;;;19.58;9.32;;;7.80;99.90;;;;;;5119474;27;20054;-77
2021/12/16 07:42:06;;;;;;;14.20;8.73;;;7.80;99.90;;;;;;5137144;27;20047;-77
2021/12/16 07:44:34;;;;;;;17.75;9.38;;;7.80;99.90;;;;;;5119562;27;20085;-77
2021/12/16 07:47:06;;;;;;;11.93;8.20;;;7.80;99.90;;;;;;5138428;27;20892;-77
2021/12/16 07:49:39;;;;;;;11.65;7.72;;;7.80;99.90;;;;;;5122464;27;20115;-76
2021/12/16 07:52:07;;;;;;;11.43;8.00;;;7.70;99.90;;;;;;5122985;27;20053;-76
2021/12/16 07:54:32;;;;;;;17.38;10.40;;;7.70;99.90;;;;;;5122535;27;20074;-76
2021/12/16 07:57:00;;;;;;;15.38;9.90;;;7.70;99.90;;;;;;5120411;27;20918;-76
2021/12/16 07:59:29;;;;;;;20.10;11.27;;;7.60;99.90;;;;;;5140558;27;20050;-76
2021/12/16 08:01:55;;;;;;;16.15;8.68;;;7.60;99.90;;;;;;5141201;27;20061;-77
2021/12/16 08:04:27;;;;;;;14.95;9.35;;;7.70;99.90;;;;;;5121171;27;20047;-76
2021/12/16 08:06:56;;;;;;;13.30;8.85;;;7.70;99.90;;;;;;5121419;27;20039;-70
2021/12/16 08:09:22;;;;;;;15.90;9.38;;;7.80;99.90;;;;;;5140035;27;20526;-69
2021/12/16 08:11:49;;;;;;;16.52;10.52;;;7.80;99.90;;;;;;5120826;27;20107;-76
2021/12/16 08:14:16;;;;;;;16.73;10.88;;;7.80;99.90;;;;;;5121270;27;20053;-76
2021/12/16 08:16:41;;;;;;;17.73;10.30;;;7.90;99.90;;;;;;5122685;27;20112;-76
2021/12/16 08:19:08;;;;;;;15.05;11.20;;;7.90;99.90;;;;;;5139350;27;20042;-77
2021/12/16 08:21:35;;;;;;;15.75;11.98;;;8.00;99.90;;;;;;5141214;27;20047;-76
2021/12/16 08:24:06;;;;;;;16.20;10.23;;;8.00;99.90;;;;;;5122145;27;20051;-76
2021/12/16 08:26:33;;;;;;;18.20;12.02;;;8.00;99.90;;;;;;5120232;27;20042;-76
2021/12/16 08:28:59;;;;;;;19.98;11.65;;;8.10;99.90;;;;;;5121009;27;20091;-76
2021/12/16 08:31:27;;;;;;;16.23;10.60;;;8.10;99.90;;;;;;5139029;27;20078;-76
2021/12/16 08:33:53;;;;;;;16.70;12.02;;;8.10;99.90;;;;;;5119788;27;20088;-76
2021/12/16 08:36:19;;;;;;;15.75;10.85;;;8.20;99.90;;;;;;5120855;27;20042;-76
2021/12/16 08:38:46;;;;;;;22.02;12.80;;;8.20;99.90;;;;;;5138121;27;20107;-76
2021/12/16 08:41:16;;;;;;;23.33;12.38;;;8.30;99.90;;;;;;5121214;27;20034;-76
2021/12/16 08:43:44;;;;;;;19.85;12.35;;;8.30;99.90;;;;;;5120055;27;20055;-77
2021/12/16 08:46:12;;;;;;;21.50;13.43;;;8.40;99.90;;;;;;5119210;27;20811;-76
2021/12/16 08:48:41;;;;;;;19.77;13.75;;;8.40;99.90;;;;;;5118869;27;20070;-76
2021/12/16 08:51:08;;;;;;;20.40;13.20;;;8.50;99.90;;;;;;5120155;27;20062;-76
2021/12/16 08:53:35;;;;;;;18.50;12.90;;;8.50;99.90;;;;;;5117831;27;20054;-76
2021/12/16 08:56:03;;;;;;;19.50;12.02;;;8.50;99.90;;;;;;5118754;27;20039;-76
2021/12/16 08:58:29;;;;;;;20.33;14.00;;;8.60;99.90;;;;;;5122577;27;20062;-77
2021/12/16 09:01:08;;;;;;;19.80;10.95;;;8.60;99.90;;;;;;5118549;27;20046;-76
2021/12/16 09:03:34;;;;;;;24.00;13.45;;;8.60;99.90;;;;;;5120825;27;20572;-77
2021/12/16 09:06:01;;;;;;;25.58;14.63;;;8.60;99.90;;;;;;5120065;27;20111;-77
2021/12/16 09:08:27;;;;;;;20.15;13.77;;;8.60;99.90;;;;;;5120656;27;20147;-76
2021/12/16 09:10:53;;;;;;;19.30;12.82;;;8.60;99.90;;;;;;5120295;27;20103;-77
2021/12/16 09:13:19;;;;;;;20.80;13.48;;;8.60;99.90;;;;;;5121690;27;20053;-77
2021/12/16 09:15:54;;;;;;;21.58;13.35;;;8.70;99.90;;;;;;5120970;27;20051;-77
2021/12/16 09:18:25;;;;;;;24.98;14.52;;;8.70;99.90;;;;;;5134168;27;20107;-72
2021/12/16 09:20:52;;;;;;;22.98;15.05;;;8.80;99.90;;;;;;5119705;27;20038;-75
2021/12/16 09:23:18;;;;;;;20.33;13.48;;;8.70;99.90;;;;;;5118857;27;20995;-78
2021/12/16 09:25:46;;;;;;;25.23;15.07;;;8.70;99.90;;;;;;5121709;27;20042;-78
2021/12/16 09:28:13;;;;;;;24.65;14.82;;;8.60;99.90;;;;;;5118317;27;20054;-78
2021/12/16 09:30:40;;;;;;;29.92;14.88;;;8.60;99.90;;;;;;5118675;27;20046;-77
2021/12/16 09:33:12;;;;;;;29.33;15.73;;;8.60;99.90;;;;;;5119172;27;20053;-78
2021/12/16 09:35:39;;;;;;;27.25;16.38;;;8.60;99.90;;;;;;5135781;27;20050;-78
2021/12/16 09:38:07;;;;;;;38.35;17.92;;;8.60;99.90;;;;;;5117364;27;20049;-78
2021/12/16 09:40:36;;;;;;;24.02;15.82;;;8.60;99.90;;;;;;5136282;27;21014;-77
2021/12/16 09:43:04;;;;;;;27.63;14.75;;;8.70;99.90;;;;;;5118678;27;20054;-77
2021/12/16 09:45:29;;;;;;;30.98;17.50;;;8.80;99.90;;;;;;5118687;27;20159;-76
2021/12/16 09:47:56;;;;;;;29.35;17.10;;;8.80;99.90;;;;;;5137355;27;20053;-76
2021/12/16 09:50:25;;;;;;;31.92;15.52;;;8.90;99.90;;;;;;5117973;27;20043;-77
2021/12/16 09:52:51;;;;;;;24.80;14.50;;;8.90;99.90;;;;;;5115429;27;20043;-76
2021/12/16 09:55:17;;;;;;;28.63;14.23;;;9.00;99.90;;;;;;5136073;27;20035;-76
2021/12/16 09:57:43;;;;;;;28.80;12.88;;;9.10;99.90;;;;;;5115562;27;20051;-77
2021/12/16 10:00:14;;;;;;;28.13;15.65;;;9.10;99.90;;;;;;5118156;27;20122;-76
2021/12/16 10:02:39;;;;;;;32.85;14.65;;;9.10;99.90;;;;;;5118477;27;20512;-77
2021/12/16 10:05:07;;;;;;;43.10;16.20;;;9.10;99.90;;;;;;5118301;27;20050;-76
2021/12/16 10:07:34;;;;;;;30.92;13.60;;;9.20;99.90;;;;;;5120903;27;20119;-77
2021/12/16 10:10:03;;;;;;;26.67;12.45;;;9.20;99.90;;;;;;5117636;27;20141;-77
2021/12/16 10:12:34;;;;;;;42.17;14.60;;;9.20;99.90;;;;;;5117874;27;20061;-76
2021/12/16 10:15:05;;;;;;;22.45;12.65;;;9.20;99.90;;;;;;5118118;27;21034;-77
2021/12/16 10:17:40;;;;;;;25.98;13.15;;;9.30;99.90;;;;;;5136234;27;20055;-76
2021/12/16 10:20:12;;;;;;;35.30;12.57;;;9.40;99.90;;;;;;5118498;27;20478;-77
2021/12/16 10:22:41;;;;;;;16.80;10.50;;;9.40;99.90;;;;;;5118413;27;20286;-77
2021/12/16 10:25:32;;;;;;;25.92;11.00;;;9.40;99.90;;;;;;5120102;27;20034;-77
2021/12/16 10:28:29;;;;;;;20.85;12.65;;;9.50;99.90;;;;;;5118411;27;20077;-77
2021/12/16 10:31:02;;;;;;;22.08;12.50;;;9.50;99.90;;;;;;5130836;27;20055;-76
2021/12/16 10:33:49;;;;;;;60.78;16.13;;;9.50;99.90;;;;;;5137235;27;20046;-77
2021/12/16 10:36:22;;;;;;;47.05;14.00;;;9.60;99.90;;;;;;5137292;27;20055;-76
2021/12/16 10:38:47;;;;;;;29.02;12.32;;;9.50;99.90;;;;;;5118646;27;20150;-77
2021/12/16 10:41:23;;;;;;;45.90;12.70;;;9.60;99.90;;;;;;5118995;27;20058;-77
2021/12/16 10:44:13;;;;;;;36.00;13.60;;;9.60;99.90;;;;;;5118353;27;20050;-77
2021/12/16 10:46:49;;;;;;;70.03;15.77;;;9.60;99.90;;;;;;5117696;27;20043;-77
2021/12/16 10:49:19;;;;;;;40.75;13.50;;;9.60;99.90;;;;;;5119579;27;20766;-77
2021/12/16 10:51:46;;;;;;;24.52;11.63;;;9.60;99.90;;;;;;5141116;27;20103;-76
2021/12/16 10:54:16;;;;;;;21.20;10.57;;;9.60;99.90;;;;;;5119175;27;20173;-76
2021/12/16 10:56:45;;;;;;;53.88;14.60;;;9.60;99.90;;;;;;5119387;27;20981;-76
2021/12/16 10:59:13;;;;;;;33.90;12.20;;;9.60;99.90;;;;;;5123248;27;20138;-76
2021/12/16 11:01:47;;;;;;;39.60;12.43;;;9.60;99.90;;;;;;5139081;27;20047;-76
2021/12/16 11:04:42;;;;;;;21.70;12.98;;;9.70;99.90;;;;;;5120066;27;20054;-77
2021/12/16 11:07:19;;;;;;;30.88;12.57;;;9.60;99.90;;;;;;5121223;27;20043;-76
2021/12/16 11:09:52;;;;;;;19.75;11.13;;;9.70;99.90;;;;;;5138997;27;20620;-76
2021/12/16 11:12:23;;;;;;;19.08;10.93;;;9.70;99.90;;;;;;5139076;27;20316;-76
2021/12/16 11:15:15;;;;;;;22.38;12.50;;;9.70;99.90;;;;;;5119009;27;20054;-76
2021/12/16 11:17:52;;;;;;;24.42;12.23;;;9.70;99.90;;;;;;5108842;27;20109;-68
2021/12/16 11:20:29;;;;;;;24.50;11.73;;;9.70;99.90;;;;;;5120011;27;20149;-76
2021/12/16 11:23:08;;;;;;;16.30;10.13;;;9.80;99.90;;;;;;5120462;27;20488;-76
2021/12/16 11:25:58;;;;;;;18.88;11.45;;;9.80;99.90;;;;;;5122394;27;20039;-76
2021/12/16 11:28:36;;;;;;;23.95;13.35;;;9.80;99.90;;;;;;5119098;27;20046;-77
2021/12/16 11:31:06;;;;;;;22.33;11.85;;;9.90;99.90;;;;;;5119214;27;20443;-77
2021/12/16 11:33:56;;;;;;;18.38;11.55;;;9.90;99.90;;;;;;5118154;27;20042;-77
2021/12/16 11:36:33;;;;;;;14.13;9.55;;;9.90;99.90;;;;;;5119408;27;20064;-76
2021/12/16 11:39:13;;;;;;;15.65;10.43;;;9.90;99.90;;;;;;5137580;27;20065;-76
2021/12/16 11:41:49;;;;;;;22.00;11.57;;;10.00;99.90;;;;;;5118006;27;20050;-77
2021/12/16 11:44:25;;;;;;;21.88;12.50;;;10.00;99.90;;;;;;5118059;27;20054;-77
2021/12/16 11:46:57;;;;;;;22.95;12.18;;;10.00;99.90;;;;;;5118868;27;20074;-77
2021/12/16 11:49:41;;;;;;;20.25;11.93;;;10.00;99.90;;;;;;5119081;27;20042;-77
2021/12/16 11:52:24;;;;;;;15.73;10.43;;;10.00;99.90;;;;;;5118660;27;20849;-77
2021/12/16 11:55:01;;;;;;;19.30;10.70;;;10.00;99.90;;;;;;5118502;27;20842;-76
2021/12/16 11:57:42;;;;;;;22.70;11.32;;;10.00;99.90;;;;;;5118835;27;20069;-77
2021/12/16 12:00:13;;;;;;;21.77;12.95;;;10.00;99.90;;;;;;5122991;27;20474;-77
2021/12/16 12:02:51;;;;;;;29.75;12.65;;;10.00;99.90;;;;;;5119398;27;20046;-77
2021/12/16 12:05:16;;;;;;;21.83;12.13;;;10.00;99.90;;;;;;5119311;27;20188;-76
2021/12/16 12:07:45;;;;;;;20.10;12.73;;;10.00;99.90;;;;;;5139858;27;20142;-77
2021/12/16 12:10:11;;;;;;;20.75;13.75;;;10.00;99.90;;;;;;5117560;27;20061;-77
2021/12/16 12:12:49;;;;;;;20.65;12.45;;;10.00;99.90;;;;;;5138375;27;20295;-77
2021/12/16 12:15:17;;;;;;;25.45;13.45;;;10.10;99.90;;;;;;5119881;27;20925;-77
2021/12/16 12:17:52;;;;;;;31.88;15.23;;;10.10;99.90;;;;;;5119790;27;20046;-77
2021/12/16 12:20:29;;;;;;;22.23;13.73;;;10.10;99.90;;;;;;5119774;27;20111;-77
2021/12/16 12:22:56;;;;;;;26.88;14.40;;;10.10;99.90;;;;;;5119903;27;20787;-77
2021/12/16 12:25:22;;;;;;;22.42;14.45;;;10.10;99.90;;;;;;5139571;27;20051;-77
2021/12/16 12:27:48;;;;;;;21.08;13.07;;;10.10;99.90;;;;;;5137248;27;21004;-77
2021/12/16 12:30:15;;;;;;;40.17;15.35;;;10.10;99.90;;;;;;5119790;27;20074;-77
2021/12/16 12:32:44;;;;;;;30.05;15.52;;;10.00;99.90;;;;;;5118789;27;20133;-77
2021/12/16 12:35:15;;;;;;;28.38;16.08;;;10.00;99.90;;;;;;5138405;27;20042;-77
2021/12/16 12:37:44;;;;;;;21.85;12.73;;;10.10;99.90;;;;;;5137830;27;20792;-77
2021/12/16 12:40:18;;;;;;;28.85;16.17;;;10.00;99.90;;;;;;5119553;27;20054;-77
2021/12/16 12:42:47;;;;;;;20.52;12.65;;;10.00;99.90;;;;;;5119263;27;20098;-76
2021/12/16 12:45:19;;;;;;;17.83;12.57;;;10.00;99.90;;;;;;5119515;27;20141;-76
2021/12/16 12:47:49;;;;;;;25.38;13.82;;;10.00;99.90;;;;;;5137644;27;20493;-76
2021/12/16 12:50:19;;;;;;;17.45;11.80;;;10.00;99.90;;;;;;5117022;27;20046;-76
2021/12/16 12:52:50;;;;;;;23.45;13.65;;;10.00;99.90;;;;;;5116645;27;20050;-77
2021/12/16 12:55:19;;;;;;;25.63;14.20;;;10.10;99.90;;;;;;5117545;27;20667;-77
2021/12/16 12:57:47;;;;;;;21.92;12.40;;;10.10;99.90;;;;;;5117631;27;20047;-77
2021/12/16 13:00:51;;;;;;;18.98;10.55;;;10.10;99.90;;;;;;5118534;27;20042;-76
2021/12/16 13:03:24;;;;;;;20.08;12.82;;;9.90;99.90;;;;;;5115802;27;20050;-77
2021/12/16 13:05:52;;;;;;;19.90;12.30;;;10.00;99.90;;;;;;5114889;27;20042;-77
2021/12/16 13:08:28;;;;;;;21.85;13.15;;;10.00;99.90;;;;;;5137448;27;20161;-77
2021/12/16 13:11:00;;;;;;;21.00;13.40;;;10.00;99.90;;;;;;5134510;27;20103;-77
2021/12/16 13:16:50;;;;;;;19.95;11.80;;;10.00;99.90;;;;;;5117417;27;20058;-77
2021/12/16 13:25:48;;;;;;;23.52;12.77;;;10.00;99.90;;;;;;5094183;27;20055;-77
2021/12/16 13:28:03;;;;;;;27.85;14.07;;;10.00;99.90;;;;;;5115417;27;20107;-77
2021/12/16 13:30:32;;;;;;;21.60;12.73;;;10.00;99.90;;;;;;5117387;27;20039;-77
2021/12/16 13:33:26;;;;;;;29.55;14.65;;;10.00;99.90;;;;;;5136169;27;20038;-77
2021/12/16 13:36:05;;;;;;;29.08;13.43;;;10.00;99.90;;;;;;5114818;27;20607;-77
2021/12/16 13:38:44;;;;;;;27.33;13.05;;;10.10;99.90;;;;;;5115208;27;20056;-76
2021/12/16 13:41:14;;;;;;;19.38;11.55;;;10.10;99.90;;;;;;5114949;27;20053;-77
2021/12/16 13:44:00;;;;;;;26.67;14.45;;;10.10;99.90;;;;;;5117068;27;20053;-77
2021/12/16 13:46:37;;;;;;;17.48;9.70;;;10.10;99.90;;;;;;5114783;27;20083;-78
2021/12/16 13:58:22;;;;;;;21.20;10.48;;;10.10;99.90;;;;;;5141850;27;20057;-77
2021/12/16 14:04:14;;;;;;;17.23;10.95;;;10.10;99.90;;;;;;5113883;27;20059;-77
2021/12/16 14:06:54;;;;;;;19.75;10.05;;;10.20;99.90;;;;;;5116283;27;20130;-75
2021/12/16 14:09:31;;;;;;;17.35;10.52;;;10.20;99.90;;;;;;5113482;27;20055;-77
2021/12/16 14:23:05;;;;;;;16.58;9.50;;;10.20;99.90;;;;;;5115610;27;20075;-77
2021/12/16 14:26:09;;;;;;;12.90;7.60;;;10.10;99.90;;;;;;5118766;27;20046;-76
2021/12/16 14:31:44;;;;;;;13.05;7.88;;;10.10;99.90;;;;;;5120998;27;20055;-77
2021/12/16 14:50:39;;;;;;;19.08;9.93;;;10.10;99.90;;;;;;5140671;27;20057;-76
2021/12/16 14:53:15;;;;;;;14.15;9.30;;;10.10;99.90;;;;;;5119552;27;20123;-76
2021/12/16 14:55:41;;;;;;;11.40;8.70;;;10.10;99.90;;;;;;5120073;27;20050;-76
2021/12/16 14:58:07;;;;;;;11.70;8.55;;;10.10;99.90;;;;;;5121488;27;20039;-76
2021/12/16 15:00:43;;;;;;;12.82;8.75;;;10.10;99.90;;;;;;5119766;27;20093;-76
2021/12/16 15:03:12;;;;;;;13.20;8.23;;;10.00;99.90;;;;;;5117370;27;20038;-75
2021/12/16 15:05:44;;;;;;;12.75;8.80;;;9.90;99.90;;;;;;5119311;27;20171;-75
2021/12/16 15:08:21;;;;;;;19.98;11.00;;;9.90;99.90;;;;;;5116984;27;20091;-76
2021/12/16 15:10:47;;;;;;;20.55;9.93;;;9.90;99.90;;;;;;5137676;27;20046;-75
2021/12/16 15:13:27;;;;;;;19.27;10.07;;;9.80;99.90;;;;;;5118753;27;20047;-75
2021/12/16 15:16:19;;;;;;;17.65;8.90;;;9.80;99.90;;;;;;5111006;27;20054;-75
2021/12/16 15:42:59;;;;;;;15.23;9.45;;;9.60;99.90;;;;;;5139112;27;20106;-75
2021/12/16 15:45:38;;;;;;;16.75;8.65;;;9.50;99.90;;;;;;5119414;27;20611;-74
2021/12/16 15:48:17;;;;;;;13.45;7.82;;;9.40;99.90;;;;;;5119316;27;20066;-75
2021/12/16 15:50:55;;;;;;;15.05;8.63;;;9.50;99.90;;;;;;5119600;27;20846;-75
2021/12/16 15:53:35;;;;;;;13.77;8.57;;;9.50;99.90;;;;;;5114644;27;20050;-76
2021/12/16 15:56:06;;;;;;;13.18;8.52;;;9.50;99.90;;;;;;5118852;27;20109;-76
2021/12/16 15:59:04;;;;;;;13.90;9.05;;;9.40;99.90;;;;;;5122266;27;20058;-76
2021/12/16 16:01:40;;;;;;;12.00;7.03;;;9.40;99.90;;;;;;5103347;27;20095;-76
2021/12/16 16:04:14;;;;;;;16.35;8.60;;;9.40;99.90;;;;;;5118675;27;20065;-76
2021/12/16 16:06:42;;;;;;;12.25;8.13;;;9.40;99.90;;;;;;5140049;27;20561;-76
2021/12/16 16:09:10;;;;;;;18.58;9.40;;;9.40;99.90;;;;;;5141663;27;20047;-76
2021/12/16 16:11:39;;;;;;;13.25;9.15;;;9.30;99.90;;;;;;5120168;27;20046;-75
2021/12/16 16:14:06;;;;;;;14.90;8.57;;;9.30;99.90;;;;;;5120268;27;20047;-76
2021/12/16 16:16:43;;;;;;;16.35;10.27;;;9.40;99.90;;;;;;5137109;27;20118;-76
2021/12/16 16:19:09;;;;;;;14.85;7.47;;;9.40;99.90;;;;;;5119887;27;20466;-76
2021/12/16 16:21:42;;;;;;;13.25;8.43;;;9.40;99.90;;;;;;5119411;27;20770;-76
2021/12/16 16:24:13;;;;;;;17.70;9.50;;;9.50;99.90;;;;;;5119984;27;20047;-76
2021/12/16 16:26:40;;;;;;;16.52;9.65;;;9.50;99.90;;;;;;5126016;27;20050;-76
2021/12/16 16:29:11;;;;;;;18.23;9.88;;;9.50;99.90;;;;;;5119825;27;20053;-76
2021/12/16 16:31:38;;;;;;;14.00;9.30;;;9.50;99.90;;;;;;5117238;27;20646;-76
2021/12/16 16:34:41;;;;;;;14.88;10.63;;;9.50;99.90;;;;;;5118470;27;20081;-76
2021/12/16 16:37:07;;;;;;;19.67;10.07;;;9.50;99.90;;;;;;5106707;27;20054;-76
2021/12/16 16:39:39;;;;;;;18.38;11.68;;;9.50;99.90;;;;;;5118630;27;20149;-76